Time;durP1;ratioP1;P1;durP2;ratioP2;P2;SDS_P1;SDS_P2;PMS_P1;PMS_P2;Temp;Humidity;BMP_temperature;BMP_pressure;BME280_temperature;BME280_humidity;BME280_pressure;Samples;Min_cycle;Max_cycle;Signal;HPM_P1;HPM_P2
2021/08/13 00:02:03;;;;;;;10.02;2.90;;;25.50;60.80;;;;;;5114108;28;20031;-52
2021/08/13 00:04:29;;;;;;;6.60;2.65;;;25.50;61.30;;;;;;5113711;28;20048;-55
2021/08/13 00:06:56;;;;;;;7.20;2.40;;;25.50;61.30;;;;;;5114145;27;20035;-54
2021/08/13 00:09:22;;;;;;;4.60;2.15;;;25.30;61.90;;;;;;5114376;28;20043;-49
2021/08/13 00:11:49;;;;;;;6.68;2.47;;;25.20;61.90;;;;;;5113521;28;20047;-48
2021/08/13 00:14:16;;;;;;;7.45;2.58;;;25.20;61.80;;;;;;5114022;28;20494;-48
2021/08/13 00:16:43;;;;;;;7.57;3.08;;;25.20;61.70;;;;;;5113279;28;20505;-49
2021/08/13 00:19:10;;;;;;;7.35;2.58;;;25.20;61.80;;;;;;5114211;28;20027;-49
2021/08/13 00:21:37;;;;;;;9.05;2.35;;;25.20;61.50;;;;;;5113286;28;20054;-47
2021/08/13 00:24:04;;;;;;;7.32;2.55;;;25.10;61.40;;;;;;5114069;27;20052;-50
2021/08/13 00:26:30;;;;;;;7.53;2.15;;;25.10;61.50;;;;;;5112993;28;20050;-50
2021/08/13 00:28:57;;;;;;;9.75;2.53;;;25.10;61.20;;;;;;5114007;28;20028;-48
2021/08/13 00:31:24;;;;;;;9.77;2.60;;;25.00;59.60;;;;;;5113875;28;20459;-49
2021/08/13 00:33:51;;;;;;;9.90;4.28;;;25.00;60.10;;;;;;5113618;28;20051;-50
2021/08/13 00:36:17;;;;;;;6.72;2.65;;;25.00;60.30;;;;;;5112533;28;20034;-48
2021/08/13 00:38:45;;;;;;;6.03;2.70;;;25.10;60.20;;;;;;5111337;28;20044;-50
2021/08/13 00:41:12;;;;;;;7.28;2.30;;;25.10;60.10;;;;;;5111587;28;20036;-51
2021/08/13 00:43:39;;;;;;;10.95;2.42;;;25.10;58.90;;;;;;5111296;28;20048;-47
2021/08/13 00:46:06;;;;;;;6.60;2.22;;;25.10;58.30;;;;;;5111270;28;20044;-49
2021/08/13 00:48:46;;;;;;;6.93;3.15;;;25.10;57.40;;;;;;5111277;28;20502;-48
2021/08/13 00:51:27;;;;;;;8.57;2.78;;;25.10;56.80;;;;;;5112042;28;20035;-49
2021/08/13 00:53:56;;;;;;;6.72;2.60;;;25.10;56.20;;;;;;5111346;28;20051;-50
2021/08/13 00:56:27;;;;;;;8.60;2.38;;;25.10;55.90;;;;;;5112357;28;20329;-51
2021/08/13 00:59:20;;;;;;;6.38;2.38;;;25.10;55.60;;;;;;5111080;28;20043;-51
2021/08/13 01:01:55;;;;;;;6.13;2.33;;;25.10;55.40;;;;;;5113303;28;20035;-54
2021/08/13 01:04:22;;;;;;;7.75;2.90;;;25.10;55.80;;;;;;5110832;28;20043;-52
2021/08/13 01:06:49;;;;;;;6.28;2.08;;;25.10;56.40;;;;;;5111368;28;20032;-48
2021/08/13 01:09:17;;;;;;;8.50;2.35;;;25.10;56.70;;;;;;5111079;28;20050;-51
2021/08/13 01:11:58;;;;;;;12.65;2.95;;;25.00;56.90;;;;;;5111273;28;20048;-50
2021/08/13 01:14:44;;;;;;;5.38;2.80;;;25.00;57.30;;;;;;5110838;28;20113;-49
2021/08/13 01:17:15;;;;;;;9.63;2.53;;;25.00;57.90;;;;;;5111385;28;20047;-49
2021/08/13 01:19:50;;;;;;;9.52;2.83;;;25.00;58.30;;;;;;5110968;28;20048;-51
2021/08/13 01:22:37;;;;;;;9.80;4.03;;;25.00;58.40;;;;;;5110895;28;20040;-49
2021/08/13 01:25:06;;;;;;;6.85;3.35;;;24.90;59.40;;;;;;5110776;28;20047;-52
2021/08/13 01:27:44;;;;;;;8.93;2.70;;;24.90;59.10;;;;;;5111082;28;20051;-53
2021/08/13 01:30:14;;;;;;;9.45;3.50;;;24.90;59.30;;;;;;5113120;28;20047;-51
2021/08/13 01:32:57;;;;;;;8.20;2.80;;;24.90;59.40;;;;;;5110618;28;20051;-51
2021/08/13 01:35:31;;;;;;;8.55;2.80;;;24.90;59.20;;;;;;5111484;28;20024;-48
2021/08/13 01:38:12;;;;;;;8.43;3.03;;;24.90;59.40;;;;;;5110597;28;20035;-48
2021/08/13 01:40:42;;;;;;;6.32;3.05;;;24.90;59.50;;;;;;5112075;28;20400;-52
2021/08/13 01:43:12;;;;;;;8.00;2.63;;;24.90;59.20;;;;;;5110747;28;20043;-52
2021/08/13 01:45:40;;;;;;;7.28;2.78;;;24.90;59.20;;;;;;5112310;28;20058;-51
2021/08/13 01:48:08;;;;;;;7.35;2.95;;;24.90;59.50;;;;;;5110546;28;20042;-51
2021/08/13 01:50:40;;;;;;;6.72;3.25;;;24.80;59.60;;;;;;5111405;28;20039;-51
2021/08/13 01:53:08;;;;;;;9.05;3.47;;;24.80;60.10;;;;;;5110609;28;20495;-52
2021/08/13 01:55:36;;;;;;;10.52;3.22;;;24.80;60.30;;;;;;5111861;28;20043;-52
2021/08/13 01:58:05;;;;;;;9.38;3.78;;;24.80;60.20;;;;;;5111491;28;20479;-53
2021/08/13 02:00:32;;;;;;;8.27;3.35;;;24.80;60.50;;;;;;5110793;28;20048;-48
2021/08/13 02:03:01;;;;;;;7.47;2.67;;;24.80;60.90;;;;;;5111615;28;20020;-53
2021/08/13 02:05:32;;;;;;;7.70;2.60;;;24.70;60.10;;;;;;5111387;28;20040;-54
2021/08/13 02:08:03;;;;;;;7.38;3.47;;;24.70;59.60;;;;;;5110610;28;20043;-54
2021/08/13 02:10:35;;;;;;;5.80;2.55;;;24.70;60.30;;;;;;5111341;28;20032;-55
2021/08/13 02:13:03;;;;;;;10.38;3.05;;;24.70;60.10;;;;;;5111565;28;20020;-52
2021/08/13 02:15:35;;;;;;;6.25;3.40;;;24.70;60.20;;;;;;5110206;28;20055;-50
2021/08/13 02:18:13;;;;;;;5.47;3.17;;;24.70;60.80;;;;;;5114416;28;20031;-51
2021/08/13 02:20:43;;;;;;;6.05;3.10;;;24.70;61.10;;;;;;5114805;28;20043;-51
2021/08/13 02:23:10;;;;;;;6.97;2.55;;;24.60;61.60;;;;;;5115067;28;20038;-50
2021/08/13 02:25:38;;;;;;;6.70;3.40;;;24.60;61.70;;;;;;5114322;28;20036;-50
2021/08/13 02:28:10;;;;;;;8.68;3.10;;;24.50;62.20;;;;;;5114126;28;20048;-50
2021/08/13 02:30:37;;;;;;;8.45;3.15;;;24.50;63.00;;;;;;5115009;28;20031;-51
2021/08/13 02:33:04;;;;;;;5.65;2.80;;;24.40;63.30;;;;;;5113916;28;20047;-50
2021/08/13 02:35:33;;;;;;;9.50;2.92;;;24.40;63.70;;;;;;5113685;28;20051;-52
2021/08/13 02:38:16;;;;;;;10.25;4.03;;;24.30;64.30;;;;;;5113434;28;20042;-51
2021/08/13 02:41:05;;;;;;;8.45;3.67;;;24.30;65.30;;;;;;5113931;28;20058;-48
2021/08/13 02:43:52;;;;;;;12.73;4.55;;;24.20;65.50;;;;;;5113850;28;20058;-51
2021/08/13 02:46:20;;;;;;;8.70;3.03;;;24.20;65.40;;;;;;5113601;28;20052;-51
2021/08/13 02:48:52;;;;;;;9.20;2.92;;;24.20;65.90;;;;;;5114715;28;20028;-51
2021/08/13 02:51:20;;;;;;;6.30;2.97;;;24.10;66.50;;;;;;5113965;28;20047;-52
2021/08/13 02:53:50;;;;;;;9.80;4.13;;;24.10;67.10;;;;;;5113370;28;20036;-53
2021/08/13 02:56:19;;;;;;;7.60;2.80;;;24.10;66.90;;;;;;5113803;28;20047;-54
2021/08/13 02:58:54;;;;;;;9.50;5.05;;;24.00;66.80;;;;;;5113068;28;20039;-50
2021/08/13 03:01:23;;;;;;;9.00;3.78;;;24.00;67.20;;;;;;5113682;28;20055;-49
2021/08/13 03:03:53;;;;;;;6.97;3.35;;;23.90;67.90;;;;;;5113556;28;20055;-47
2021/08/13 03:06:27;;;;;;;10.60;3.53;;;23.90;68.20;;;;;;5113319;28;20051;-49
2021/08/13 03:08:55;;;;;;;8.05;3.30;;;23.80;68.90;;;;;;5113860;28;20388;-50
2021/08/13 03:11:23;;;;;;;9.45;3.60;;;23.80;69.00;;;;;;5113303;28;20503;-49
2021/08/13 03:13:50;;;;;;;7.05;3.60;;;23.80;69.50;;;;;;5113148;28;20382;-49
2021/08/13 03:16:18;;;;;;;10.75;3.40;;;23.70;69.40;;;;;;5114023;28;20036;-47
2021/08/13 03:18:50;;;;;;;7.43;2.85;;;23.70;69.30;;;;;;5114018;28;20042;-51
2021/08/13 03:21:17;;;;;;;8.63;4.15;;;23.60;69.20;;;;;;5113015;28;20043;-49
2021/08/13 03:23:45;;;;;;;9.00;3.17;;;23.60;70.00;;;;;;5112534;28;20048;-49
2021/08/13 03:26:13;;;;;;;7.95;2.90;;;23.50;69.60;;;;;;5113000;28;20502;-50
2021/08/13 03:28:39;;;;;;;9.20;3.33;;;23.50;69.20;;;;;;5113019;28;20039;-49
2021/08/13 03:31:07;;;;;;;7.57;3.00;;;23.60;69.20;;;;;;5112470;28;20040;-51
2021/08/13 03:33:35;;;;;;;8.88;3.58;;;23.60;68.50;;;;;;5112872;28;20043;-48
2021/08/13 03:36:06;;;;;;;9.10;2.75;;;23.60;67.30;;;;;;5114112;28;20035;-46
2021/08/13 03:38:34;;;;;;;10.38;3.47;;;23.70;67.50;;;;;;5112532;28;20035;-48
2021/08/13 03:41:04;;;;;;;7.20;3.45;;;23.70;67.60;;;;;;5112899;28;20046;-48
2021/08/13 03:43:31;;;;;;;6.43;3.15;;;23.70;67.90;;;;;;5114565;28;20391;-48
2021/08/13 03:45:57;;;;;;;9.05;3.55;;;23.60;68.30;;;;;;5112793;28;20047;-50
2021/08/13 03:48:26;;;;;;;6.55;3.50;;;23.50;69.10;;;;;;5112669;28;20043;-48
2021/08/13 03:50:53;;;;;;;14.75;3.50;;;23.50;69.50;;;;;;5112274;28;20047;-49
2021/08/13 03:53:20;;;;;;;6.93;3.10;;;23.50;69.40;;;;;;5113444;28;20062;-49
2021/08/13 03:55:47;;;;;;;6.70;3.28;;;23.40;69.60;;;;;;5113669;28;20039;-52
2021/08/13 03:58:13;;;;;;;7.10;2.92;;;23.30;70.40;;;;;;5112177;28;20491;-47
2021/08/13 04:00:40;;;;;;;7.78;3.85;;;23.30;69.60;;;;;;5112983;28;20113;-52
2021/08/13 04:03:07;;;;;;;9.93;3.60;;;23.20;69.60;;;;;;5113880;28;20043;-49
2021/08/13 04:05:33;;;;;;;5.90;2.60;;;23.10;69.80;;;;;;5112543;28;20048;-52
2021/08/13 04:08:00;;;;;;;7.10;2.67;;;23.10;69.50;;;;;;5111907;28;20050;-50
2021/08/13 04:10:27;;;;;;;10.75;3.30;;;23.00;70.00;;;;;;5112688;28;20042;-62
2021/08/13 04:12:53;;;;;;;7.65;2.65;;;23.00;71.00;;;;;;5114226;28;20035;-53
2021/08/13 04:15:22;;;;;;;7.82;3.17;;;23.00;71.10;;;;;;5112717;28;20357;-50
2021/08/13 04:17:51;;;;;;;8.90;2.78;;;23.00;71.40;;;;;;5111566;28;20050;-52
2021/08/13 04:20:20;;;;;;;10.13;3.05;;;23.00;72.10;;;;;;5112073;28;20031;-49
2021/08/13 04:22:51;;;;;;;7.50;2.95;;;23.00;72.00;;;;;;5111941;28;20050;-49
2021/08/13 04:25:17;;;;;;;5.45;2.70;;;23.00;72.40;;;;;;5112352;28;20043;-52
2021/08/13 04:27:44;;;;;;;11.23;2.90;;;22.90;72.80;;;;;;5112809;28;20038;-49
2021/08/13 04:30:12;;;;;;;9.95;3.17;;;22.90;72.90;;;;;;5113156;28;20028;-49
2021/08/13 04:32:40;;;;;;;7.55;3.72;;;22.90;72.90;;;;;;5113356;28;20051;-48
2021/08/13 04:35:10;;;;;;;8.05;3.25;;;22.90;73.30;;;;;;5112861;28;20035;-50
2021/08/13 04:37:37;;;;;;;11.27;3.40;;;22.90;73.00;;;;;;5112921;28;20054;-53
2021/08/13 04:40:05;;;;;;;7.93;3.22;;;23.00;73.00;;;;;;5112006;28;20028;-48
2021/08/13 04:42:36;;;;;;;8.32;3.45;;;23.00;73.10;;;;;;5112191;28;20046;-51
2021/08/13 04:45:03;;;;;;;8.95;3.17;;;23.00;72.30;;;;;;5111925;28;20047;-48
2021/08/13 04:47:30;;;;;;;9.48;3.58;;;23.10;72.20;;;;;;5110964;28;20039;-52
2021/08/13 04:49:57;;;;;;;6.63;2.95;;;23.10;72.00;;;;;;5112364;28;20028;-51
2021/08/13 04:52:23;;;;;;;11.68;4.97;;;23.10;71.50;;;;;;5113228;27;20036;-47
2021/08/13 04:54:50;;;;;;;7.53;3.08;;;23.10;70.50;;;;;;5112689;28;20313;-52
2021/08/13 04:57:17;;;;;;;9.35;3.67;;;23.10;69.90;;;;;;5111100;28;20048;-49
2021/08/13 04:59:43;;;;;;;6.78;3.30;;;23.20;69.60;;;;;;5112250;28;20043;-47
2021/08/13 05:02:19;;;;;;;5.07;3.05;;;23.30;67.00;;;;;;5110898;28;20040;-49
2021/08/13 05:04:45;;;;;;;7.45;2.72;;;23.30;65.10;;;;;;5112049;28;20046;-49
2021/08/13 05:07:12;;;;;;;7.07;2.42;;;23.40;62.50;;;;;;5113047;28;20036;-46
2021/08/13 05:09:38;;;;;;;5.90;2.58;;;23.50;61.90;;;;;;5110878;28;20046;-49
2021/08/13 05:12:05;;;;;;;6.53;2.63;;;23.50;61.50;;;;;;5110746;28;20054;-48
2021/08/13 05:14:32;;;;;;;7.18;2.60;;;23.50;61.80;;;;;;5110803;28;20050;-49
2021/08/13 05:16:58;;;;;;;8.68;2.78;;;23.60;62.10;;;;;;5111386;28;20051;-54
2021/08/13 05:19:26;;;;;;;11.82;3.85;;;23.60;61.90;;;;;;5111112;28;20036;-49
2021/08/13 05:21:52;;;;;;;8.73;2.50;;;23.70;62.00;;;;;;5112346;28;20039;-48
2021/08/13 05:24:26;;;;;;;9.68;2.75;;;23.70;61.40;;;;;;5110347;28;20059;-52
2021/08/13 05:26:52;;;;;;;5.35;3.00;;;23.70;61.50;;;;;;5110568;28;20044;-49
2021/08/13 05:29:19;;;;;;;9.13;3.03;;;23.80;62.00;;;;;;5111567;28;20441;-48
2021/08/13 05:31:45;;;;;;;6.38;2.78;;;23.80;61.30;;;;;;5110918;28;20059;-48
2021/08/13 05:34:12;;;;;;;10.00;3.25;;;23.80;60.40;;;;;;5111962;28;20047;-48
2021/08/13 05:36:38;;;;;;;8.00;3.28;;;23.90;60.20;;;;;;5112844;28;20514;-51
2021/08/13 05:39:05;;;;;;;6.95;3.00;;;23.90;59.90;;;;;;5111274;28;20035;-53
2021/08/13 05:41:32;;;;;;;6.95;2.90;;;23.90;59.90;;;;;;5111518;28;20043;-51
2021/08/13 05:43:58;;;;;;;10.20;3.72;;;23.90;59.90;;;;;;5110538;28;20480;-48
2021/08/13 05:46:25;;;;;;;7.50;3.10;;;23.90;60.10;;;;;;5111728;28;20032;-48
2021/08/13 05:48:54;;;;;;;12.20;3.70;;;23.90;60.30;;;;;;5110754;28;20048;-47
2021/08/13 05:51:21;;;;;;;7.60;2.67;;;23.90;60.50;;;;;;5112056;28;20051;-50
2021/08/13 05:53:47;;;;;;;9.18;2.80;;;23.90;60.60;;;;;;5115235;28;20032;-53
2021/08/13 05:56:14;;;;;;;10.85;4.05;;;23.90;60.80;;;;;;5114841;28;20376;-49
2021/08/13 05:58:40;;;;;;;10.25;3.13;;;23.90;60.90;;;;;;5117110;28;20455;-49
2021/08/13 06:01:08;;;;;;;4.85;2.63;;;23.90;61.40;;;;;;5115422;28;20023;-52
2021/08/13 06:03:34;;;;;;;8.57;5.07;;;23.90;61.80;;;;;;5116430;28;20047;-55
2021/08/13 06:06:01;;;;;;;10.77;3.55;;;23.90;62.10;;;;;;5114191;28;20048;-52
2021/08/13 06:08:27;;;;;;;9.20;2.97;;;23.90;62.40;;;;;;5116042;28;20379;-50
2021/08/13 06:10:54;;;;;;;9.73;3.28;;;23.90;62.50;;;;;;5114044;28;20046;-54
2021/08/13 06:13:20;;;;;;;5.97;2.90;;;23.90;62.70;;;;;;5115322;28;20058;-53
2021/08/13 06:15:49;;;;;;;7.38;2.83;;;24.00;62.90;;;;;;5114017;28;20044;-53
2021/08/13 06:18:16;;;;;;;6.75;3.35;;;24.10;62.80;;;;;;5115743;28;20055;-53
2021/08/13 06:20:42;;;;;;;9.25;3.13;;;24.80;61.10;;;;;;5115787;28;20040;-53
2021/08/13 06:23:19;;;;;;;10.25;3.30;;;26.10;57.30;;;;;;5115139;28;20034;-53
2021/08/13 06:25:46;;;;;;;11.77;3.35;;;27.20;54.50;;;;;;5113781;28;20051;-50
2021/08/13 06:28:13;;;;;;;9.85;3.70;;;27.80;52.90;;;;;;5114095;28;20043;-53
2021/08/13 06:30:42;;;;;;;10.60;3.58;;;28.10;52.00;;;;;;5114613;28;20023;-51
2021/08/13 06:33:09;;;;;;;6.75;2.92;;;28.40;51.30;;;;;;5116187;28;20444;-53
2021/08/13 06:35:36;;;;;;;9.13;2.67;;;28.00;51.50;;;;;;5113463;28;20035;-47
2021/08/13 06:38:04;;;;;;;7.65;2.95;;;27.20;53.90;;;;;;5114642;28;20047;-51
2021/08/13 06:40:33;;;;;;;10.52;3.08;;;26.40;56.30;;;;;;5114038;28;20035;-51
2021/08/13 06:43:00;;;;;;;8.20;3.72;;;26.00;57.80;;;;;;5113395;28;20044;-52
2021/08/13 06:45:28;;;;;;;5.78;2.20;;;25.70;58.90;;;;;;5114166;28;20043;-53
2021/08/13 06:47:58;;;;;;;8.80;4.20;;;25.60;59.60;;;;;;5113483;28;20051;-51
2021/08/13 06:50:25;;;;;;;9.88;2.70;;;25.50;60.10;;;;;;5114138;28;20633;-53
2021/08/13 06:52:53;;;;;;;5.20;2.78;;;25.50;60.60;;;;;;5113629;28;20043;-52
2021/08/13 06:55:19;;;;;;;10.52;2.95;;;25.50;60.60;;;;;;5114473;28;20038;-52
2021/08/13 06:57:51;;;;;;;9.43;3.08;;;25.50;60.40;;;;;;5113566;28;20408;-47
2021/08/13 07:00:19;;;;;;;6.38;3.05;;;25.60;60.50;;;;;;5113038;28;20040;-52
2021/08/13 07:02:49;;;;;;;8.65;3.40;;;25.70;60.50;;;;;;5112970;28;20043;-52
2021/08/13 07:05:16;;;;;;;;;;;25.70;60.40;;;;;;5113615;28;20051;-52
2021/08/13 07:07:43;;;;;;;9.13;4.30;;;25.80;60.40;;;;;;5112391;28;19908;-52
2021/08/13 07:10:11;;;;;;;6.85;3.17;;;25.90;60.10;;;;;;5113776;28;20024;-53
2021/08/13 07:12:39;;;;;;;11.45;3.53;;;25.90;60.00;;;;;;5113039;28;20407;-47
2021/08/13 07:15:08;;;;;;;11.68;3.42;;;26.10;60.00;;;;;;5115017;28;20038;-52
2021/08/13 07:17:35;;;;;;;7.38;3.22;;;26.10;59.90;;;;;;5113853;28;20035;-48
2021/08/13 07:20:07;;;;;;;6.43;3.63;;;26.20;59.60;;;;;;5115023;28;20028;-48
2021/08/13 07:22:34;;;;;;;9.88;3.00;;;26.20;59.10;;;;;;5113768;28;20035;-51
2021/08/13 07:25:01;;;;;;;6.93;2.95;;;26.20;58.90;;;;;;5112736;28;20055;-53
2021/08/13 07:27:28;;;;;;;10.98;3.33;;;26.20;58.90;;;;;;5112692;28;20399;-49
2021/08/13 07:29:56;;;;;;;8.77;3.35;;;26.30;58.60;;;;;;5112352;28;20063;-52
2021/08/13 07:32:23;;;;;;;6.38;3.63;;;26.40;58.60;;;;;;5112759;28;20047;-49
2021/08/13 07:34:49;;;;;;;5.95;3.10;;;26.50;58.00;;;;;;5112505;28;20051;-50
2021/08/13 07:37:18;;;;;;;7.60;3.92;;;26.60;57.80;;;;;;5112167;28;20040;-49
2021/08/13 07:39:45;;;;;;;6.85;3.22;;;26.70;57.10;;;;;;5112556;28;20044;-47
2021/08/13 07:42:11;;;;;;;5.10;3.28;;;26.70;56.80;;;;;;5112472;28;20044;-56
2021/08/13 07:44:38;;;;;;;10.18;3.50;;;26.80;56.40;;;;;;5113634;28;20492;-52
2021/08/13 07:47:04;;;;;;;10.25;3.35;;;26.90;56.30;;;;;;5113711;28;20399;-50
2021/08/13 07:49:31;;;;;;;8.73;3.50;;;26.90;56.00;;;;;;5112350;28;20039;-53
2021/08/13 07:51:58;;;;;;;9.27;4.35;;;27.00;56.30;;;;;;5112450;28;20043;-51
2021/08/13 07:54:25;;;;;;;8.43;3.40;;;27.20;56.00;;;;;;5113052;28;20032;-50
2021/08/13 07:56:52;;;;;;;11.75;4.05;;;27.30;55.80;;;;;;5113077;28;20036;-49
2021/08/13 07:59:19;;;;;;;9.73;3.10;;;27.40;55.60;;;;;;5112673;28;20035;-52
2021/08/13 08:01:47;;;;;;;13.68;3.60;;;27.50;55.80;;;;;;5112609;28;20043;-48
2021/08/13 08:04:13;;;;;;;7.93;3.88;;;27.50;54.10;;;;;;5113452;28;20040;-47
2021/08/13 08:06:40;;;;;;;7.65;3.50;;;27.50;53.60;;;;;;5114271;28;20035;-49
2021/08/13 08:09:06;;;;;;;7.82;3.38;;;27.50;53.60;;;;;;5113018;28;20054;-49
2021/08/13 08:11:32;;;;;;;10.55;4.22;;;27.60;53.90;;;;;;5113347;28;20047;-52
2021/08/13 08:13:59;;;;;;;6.68;3.40;;;27.70;54.00;;;;;;5112948;28;20046;-48
2021/08/13 08:16:25;;;;;;;9.43;3.53;;;27.80;53.80;;;;;;5114013;28;20028;-48
2021/08/13 08:18:52;;;;;;;5.88;3.83;;;27.90;53.60;;;;;;5113749;28;20042;-54
2021/08/13 08:21:18;;;;;;;8.95;4.20;;;28.00;54.00;;;;;;5113739;28;20028;-48
2021/08/13 08:23:44;;;;;;;7.68;4.35;;;28.00;53.60;;;;;;5113017;28;20050;-51
2021/08/13 08:26:11;;;;;;;8.90;4.07;;;28.10;53.40;;;;;;5113653;28;20383;-52
2021/08/13 08:28:42;;;;;;;6.43;3.80;;;28.20;53.40;;;;;;5113710;28;20035;-54
2021/08/13 08:31:08;;;;;;;6.97;3.60;;;28.20;53.40;;;;;;5113414;28;20047;-53
2021/08/13 08:33:35;;;;;;;7.72;3.92;;;28.20;52.10;;;;;;5113554;28;20039;-50
2021/08/13 08:36:01;;;;;;;8.48;3.55;;;28.20;51.70;;;;;;5112964;28;20048;-48
2021/08/13 08:38:28;;;;;;;8.02;3.35;;;28.20;51.00;;;;;;5113157;28;20040;-49
2021/08/13 08:40:54;;;;;;;7.05;3.60;;;28.30;50.30;;;;;;5113288;28;20023;-50
2021/08/13 08:43:21;;;;;;;12.75;4.63;;;28.30;50.40;;;;;;5113155;28;20400;-54
2021/08/13 08:45:47;;;;;;;12.13;4.07;;;28.40;51.00;;;;;;5112641;28;20047;-54
2021/08/13 08:48:14;;;;;;;10.10;3.50;;;28.50;50.60;;;;;;5112797;28;20048;-48
2021/08/13 08:50:42;;;;;;;7.63;3.70;;;28.60;50.50;;;;;;5112723;28;20036;-52
2021/08/13 08:53:36;;;;;;;11.27;4.38;;;28.60;50.60;;;;;;5112525;28;20043;-50
2021/08/13 08:56:02;;;;;;;5.10;3.17;;;28.70;50.20;;;;;;5110141;28;20512;-50
2021/08/13 08:58:33;;;;;;;8.38;4.15;;;28.80;49.10;;;;;;5112588;28;20039;-51
2021/08/13 09:01:01;;;;;;;9.98;5.45;;;28.80;48.70;;;;;;5112574;28;20407;-51
2021/08/13 09:03:28;;;;;;;7.32;4.18;;;28.90;49.30;;;;;;5112525;28;20040;-52
2021/08/13 09:05:55;;;;;;;6.80;3.22;;;29.00;49.00;;;;;;5112125;28;20093;-48
2021/08/13 09:08:21;;;;;;;8.07;3.58;;;29.00;47.60;;;;;;5111966;28;20048;-49
2021/08/13 09:10:49;;;;;;;9.57;4.35;;;29.00;47.50;;;;;;5112320;28;20039;-49
2021/08/13 09:13:22;;;;;;;9.38;3.97;;;29.10;47.60;;;;;;5112346;28;20385;-54
2021/08/13 09:15:49;;;;;;;9.02;4.03;;;29.20;47.50;;;;;;5110933;28;20027;-54
2021/08/13 09:18:26;;;;;;;8.18;3.40;;;29.10;47.00;;;;;;5112252;28;20055;-54
2021/08/13 09:20:58;;;;;;;8.98;4.55;;;29.20;47.30;;;;;;5113000;28;20467;-53
2021/08/13 09:23:46;;;;;;;8.25;3.80;;;29.30;47.80;;;;;;5112346;28;20040;-50
2021/08/13 09:26:18;;;;;;;7.85;3.35;;;29.30;47.10;;;;;;5112314;28;20058;-53
2021/08/13 09:29:03;;;;;;;9.23;3.40;;;29.40;47.30;;;;;;5116685;28;20048;-54
2021/08/13 09:31:50;;;;;;;7.40;4.20;;;29.50;47.50;;;;;;5116474;28;20083;-54
2021/08/13 09:34:27;;;;;;;6.32;3.20;;;29.50;46.20;;;;;;5115993;28;20047;-57
2021/08/13 09:36:55;;;;;;;10.90;3.38;;;29.50;46.50;;;;;;5117020;27;20414;-48
2021/08/13 09:39:29;;;;;;;10.45;4.53;;;29.50;46.80;;;;;;5116130;28;20062;-49
2021/08/13 09:41:58;;;;;;;7.45;3.25;;;29.60;46.90;;;;;;5115983;28;20038;-54
2021/08/13 09:44:30;;;;;;;8.85;3.30;;;29.50;47.20;;;;;;5117187;27;20043;-49
2021/08/13 09:47:03;;;;;;;9.23;3.47;;;29.60;46.50;;;;;;5114648;28;20051;-48
2021/08/13 09:49:32;;;;;;;8.77;3.50;;;29.70;46.60;;;;;;5114659;28;20415;-53
2021/08/13 09:52:16;;;;;;;6.90;3.00;;;29.70;46.50;;;;;;5116259;28;20042;-53
2021/08/13 09:54:46;;;;;;;9.85;3.70;;;29.80;46.00;;;;;;5115721;28;20062;-48
2021/08/13 09:57:14;;;;;;;9.05;3.15;;;29.80;46.30;;;;;;5114793;28;20035;-51
2021/08/13 09:59:58;;;;;;;9.70;3.78;;;29.90;46.50;;;;;;5115978;28;20051;-55
2021/08/13 10:02:35;;;;;;;8.82;3.63;;;29.90;46.00;;;;;;5115291;28;20023;-50
2021/08/13 10:05:21;;;;;;;7.45;3.35;;;30.00;46.10;;;;;;5116411;27;20050;-51
2021/08/13 10:07:55;;;;;;;7.70;2.97;;;30.00;47.00;;;;;;5115560;28;20043;-52
2021/08/13 10:10:25;;;;;;;9.63;3.80;;;30.10;46.40;;;;;;5116285;28;20035;-54
2021/08/13 10:12:52;;;;;;;8.15;3.28;;;30.10;45.90;;;;;;5113841;28;20384;-52
2021/08/13 10:15:33;;;;;;;8.48;3.53;;;30.10;46.40;;;;;;5114495;28;20036;-53
2021/08/13 10:18:09;;;;;;;7.80;3.80;;;30.10;46.60;;;;;;5115908;28;20050;-52
2021/08/13 10:20:45;;;;;;;10.85;3.20;;;29.90;47.10;;;;;;5113975;28;20039;-57
2021/08/13 10:23:13;;;;;;;10.10;3.55;;;29.90;47.70;;;;;;5113747;28;20036;-52
2021/08/13 10:25:42;;;;;;;13.63;4.73;;;30.10;48.20;;;;;;5114061;28;20043;-54
2021/08/13 10:28:08;;;;;;;9.48;4.45;;;30.10;47.80;;;;;;5114724;28;20034;-53
2021/08/13 10:30:42;;;;;;;10.30;4.38;;;30.10;48.10;;;;;;5114578;28;20031;-54
2021/08/13 10:33:09;;;;;;;9.80;3.33;;;30.20;47.60;;;;;;5113800;28;20047;-53
2021/08/13 10:35:42;;;;;;;9.18;4.35;;;30.30;46.90;;;;;;5113833;28;20042;-50
2021/08/13 10:38:11;;;;;;;7.90;3.67;;;30.30;46.20;;;;;;5112944;28;20043;-52
2021/08/13 10:40:41;;;;;;;12.40;3.85;;;30.40;47.20;;;;;;5097558;28;20043;-52
2021/08/13 10:43:09;;;;;;;14.35;4.32;;;30.40;47.90;;;;;;5114342;28;20028;-53
2021/08/13 10:45:37;;;;;;;9.25;3.55;;;30.30;47.90;;;;;;5113652;28;20472;-49
2021/08/13 10:48:20;;;;;;;9.45;4.45;;;30.30;48.20;;;;;;5113600;28;20035;-54
2021/08/13 10:50:51;;;;;;;6.75;3.70;;;30.30;47.40;;;;;;5113713;28;20062;-50
2021/08/13 10:53:24;;;;;;;8.43;3.58;;;30.30;47.00;;;;;;5114955;28;20403;-53
2021/08/13 10:55:54;;;;;;;9.63;3.63;;;30.30;48.00;;;;;;5113808;28;20036;-52
2021/08/13 10:58:48;;;;;;;8.50;3.67;;;30.30;47.50;;;;;;5114982;28;20040;-51
2021/08/13 11:01:28;;;;;;;6.50;3.10;;;30.30;47.70;;;;;;5113658;28;20054;-52
2021/08/13 11:04:00;;;;;;;13.32;4.07;;;30.40;47.90;;;;;;5113153;28;20043;-51
2021/08/13 11:06:36;;;;;;;8.07;3.47;;;30.50;46.50;;;;;;5113177;28;20510;-52
2021/08/13 11:09:08;;;;;;;5.78;3.30;;;30.60;46.50;;;;;;5113008;28;20379;-53
2021/08/13 11:11:53;;;;;;;7.88;3.05;;;30.60;45.90;;;;;;5113318;28;20400;-53
2021/08/13 11:14:33;;;;;;;9.77;3.53;;;30.70;45.90;;;;;;5112275;28;20051;-56
2021/08/13 11:17:01;;;;;;;9.73;3.75;;;30.70;45.10;;;;;;5113097;28;20043;-54
2021/08/13 11:19:48;;;;;;;6.43;3.08;;;30.80;45.20;;;;;;5112431;28;20070;-51
2021/08/13 11:22:31;;;;;;;12.77;3.17;;;30.80;45.60;;;;;;5113847;28;20034;-50
2021/08/13 11:24:58;;;;;;;7.82;3.17;;;30.90;45.30;;;;;;5112478;28;20047;-54
2021/08/13 11:27:31;;;;;;;7.72;3.15;;;30.90;45.20;;;;;;5112761;28;20043;-50
2021/08/13 11:29:57;;;;;;;10.73;3.08;;;31.00;44.80;;;;;;5114369;28;20067;-58
2021/08/13 11:32:35;;;;;;;9.00;3.78;;;30.90;44.50;;;;;;5113469;28;20399;-53
2021/08/13 11:35:11;;;;;;;16.88;5.13;;;31.00;44.40;;;;;;5096319;28;20035;-54
2021/08/13 11:37:57;;;;;;;6.78;3.92;;;31.00;44.20;;;;;;5112912;28;20035;-56
2021/08/13 11:40:29;;;;;;;9.77;3.47;;;31.10;44.50;;;;;;5112500;28;20039;-48
2021/08/13 11:43:00;;;;;;;5.45;2.92;;;31.10;43.70;;;;;;5112740;28;20036;-50
2021/08/13 11:45:34;;;;;;;12.82;3.58;;;31.20;44.30;;;;;;5112742;28;20058;-47
2021/08/13 11:48:04;;;;;;;9.45;3.78;;;31.20;45.00;;;;;;5112432;28;20050;-49
2021/08/13 11:50:31;;;;;;;10.13;3.05;;;31.20;43.30;;;;;;5111567;28;20070;-48
2021/08/13 11:52:58;;;;;;;13.20;4.90;;;31.20;42.70;;;;;;5112315;28;20047;-54
2021/08/13 11:55:28;;;;;;;6.03;3.33;;;31.30;42.20;;;;;;5112405;28;20156;-51
2021/08/13 11:57:56;;;;;;;8.80;3.40;;;31.40;43.60;;;;;;5112434;28;20047;-53
2021/08/13 12:00:37;;;;;;;10.23;3.42;;;31.40;44.90;;;;;;5114224;28;20491;-53
2021/08/13 12:03:10;;;;;;;10.27;3.55;;;31.40;45.50;;;;;;5111918;28;20035;-53
2021/08/13 12:05:41;;;;;;;5.75;3.22;;;31.40;45.90;;;;;;5111978;28;20051;-51
2021/08/13 12:08:12;;;;;;;7.63;3.22;;;31.50;46.00;;;;;;5112321;28;20039;-48
2021/08/13 12:10:46;;;;;;;9.75;3.38;;;31.50;45.30;;;;;;5113011;28;20032;-47
2021/08/13 12:13:13;;;;;;;9.65;3.38;;;31.30;45.40;;;;;;5111543;28;20032;-50
2021/08/13 12:15:42;;;;;;;10.05;3.75;;;31.30;45.50;;;;;;5111623;28;20040;-48
2021/08/13 12:18:11;;;;;;;9.10;3.10;;;31.30;45.50;;;;;;5112398;28;20035;-48
2021/08/13 12:20:44;;;;;;;8.40;4.13;;;31.40;45.60;;;;;;5112311;28;20038;-52
2021/08/13 12:23:11;;;;;;;7.53;3.30;;;31.50;45.30;;;;;;5095491;28;20487;-52
2021/08/13 12:25:43;;;;;;;10.38;3.40;;;31.60;45.80;;;;;;5111335;28;20039;-47
2021/08/13 12:28:17;;;;;;;9.85;3.97;;;31.60;44.40;;;;;;5110654;28;20050;-47
2021/08/13 12:30:44;;;;;;;8.23;3.13;;;31.60;44.30;;;;;;5110880;28;20512;-47
2021/08/13 12:33:15;;;;;;;5.75;3.20;;;31.50;44.50;;;;;;5110984;28;20059;-47
2021/08/13 12:35:43;;;;;;;6.78;3.00;;;31.60;44.70;;;;;;5112446;28;20058;-47
2021/08/13 12:38:10;;;;;;;7.25;2.85;;;31.60;43.50;;;;;;5110976;28;20040;-48
2021/08/13 12:40:43;;;;;;;8.85;3.60;;;31.60;43.60;;;;;;5112686;28;20048;-53
2021/08/13 12:43:11;;;;;;;9.05;4.70;;;31.60;43.80;;;;;;5111915;28;20039;-49
2021/08/13 12:45:38;;;;;;;6.22;3.00;;;31.40;43.10;;;;;;5112704;28;20384;-54
2021/08/13 12:48:05;;;;;;;11.60;3.83;;;31.40;43.60;;;;;;5111111;28;20488;-50
2021/08/13 12:50:33;;;;;;;8.27;3.15;;;31.40;44.10;;;;;;5111705;28;20043;-55
2021/08/13 12:53:10;;;;;;;6.95;3.63;;;31.60;44.10;;;;;;5112759;28;20055;-54
2021/08/13 12:55:46;;;;;;;5.85;3.00;;;31.70;44.10;;;;;;5110949;28;20047;-54
2021/08/13 12:58:32;;;;;;;7.45;3.67;;;31.70;44.10;;;;;;5111215;28;20064;-49
2021/08/13 13:01:26;;;;;;;7.97;3.83;;;31.80;44.20;;;;;;5111016;28;20395;-48